PGT365M LEBB-LTFJ
Flight info
| Callsign | PGT365M |
|---|---|
| Flight time | N/A |
| Altitude | 37000 |
| Route | PPN P152 GOSVI DCT RONKO DCT RONNY DCT SURCO DCT MARIO DCT POSSY DCT GRAUS DCT ALOSU DCT GEMAS DCT REBUL DCT VIBOK DCT CAVES DCT BCN DCT DIPES N725 OSPOK DCT NOLVI DCT ORKUM DCT ELSAG DCT ALG DCT VAVAX DCT UNIXO DCT LUNAR DCT GOKEL DCT LIMJA DCT TIRCA DCT OVVER DCT ADDER DCT PINDO DCT PEREN UN644 DIGTI UT162 DRAMO |
| Aircraft | A20N/M-SDE2E3FGHIRWXY/LB1 |
Departure
| Time | 2026-04-27 12:53 |
|---|---|
| Airport | Bilbao Airport (LEBB) |
Arrival
| Time | N/A |
|---|---|
| Airport | Istanbul Sabiha Gökçen International Airport (LTFJ) |
| Time | Latitude | Longitude | Altitude | Speed | Heading |
|---|---|---|---|---|---|
| 2026-04-27 12:19 | 43.30461 | -2.90741 | 123 ft | 0 kts | 27° |
| 2026-04-27 12:44 | 43.30442 | -2.90754 | 125 ft | 4 kts | 31° |
| 2026-04-27 12:44 | 43.30420 | -2.90776 | 122 ft | 4 kts | 48° |
| 2026-04-27 12:45 | 43.30409 | -2.90804 | 122 ft | 3 kts | 108° |
| 2026-04-27 12:45 | 43.30411 | -2.90810 | 122 ft | 0 kts | 116° |
| 2026-04-27 12:47 | 43.30406 | -2.90798 | 123 ft | 3 kts | 116° |
| 2026-04-27 12:47 | 43.30395 | -2.90765 | 123 ft | 5 kts | 116° |
| 2026-04-27 12:48 | 43.30376 | -2.90713 | 124 ft | 7 kts | 116° |
| 2026-04-27 12:48 | 43.30351 | -2.90643 | 124 ft | 9 kts | 116° |
| 2026-04-27 12:48 | 43.30302 | -2.90578 | 124 ft | 11 kts | 146° |
| 2026-04-27 12:48 | 43.30231 | -2.90530 | 125 ft | 11 kts | 187° |
| 2026-04-27 12:49 | 43.30150 | -2.90572 | 126 ft | 13 kts | 189° |
| 2026-04-27 12:49 | 43.30090 | -2.90497 | 126 ft | 13 kts | 116° |
| 2026-04-27 12:49 | 43.30047 | -2.90380 | 128 ft | 14 kts | 117° |
| 2026-04-27 12:49 | 43.30001 | -2.90254 | 125 ft | 16 kts | 116° |
| 2026-04-27 12:50 | 43.29951 | -2.90116 | 127 ft | 17 kts | 117° |
| 2026-04-27 12:50 | 43.29897 | -2.89968 | 127 ft | 18 kts | 117° |
| 2026-04-27 12:50 | 43.29839 | -2.89812 | 125 ft | 19 kts | 117° |
| 2026-04-27 12:50 | 43.29780 | -2.89649 | 124 ft | 19 kts | 117° |
| 2026-04-27 12:51 | 43.29718 | -2.89504 | 124 ft | 16 kts | 143° |
| 2026-04-27 12:51 | 43.29658 | -2.89544 | 126 ft | 10 kts | 242° |
| 2026-04-27 12:51 | 43.29620 | -2.89644 | 126 ft | 13 kts | 243° |
| 2026-04-27 12:51 | 43.29635 | -2.89765 | 125 ft | 12 kts | 297° |
| 2026-04-27 12:52 | 43.29639 | -2.89775 | 123 ft | 2 kts | 296° |
| 2026-04-27 12:52 | 43.29688 | -2.89909 | 126 ft | 46 kts | 297° |
| 2026-04-27 12:52 | 43.29943 | -2.90605 | 124 ft | 114 kts | 297° |
| 2026-04-27 12:52 | 43.30387 | -2.91805 | 146 ft | 163 kts | 298° |
| 2026-04-27 12:53 | 43.31393 | -2.94613 | 1347 ft | 163 kts | 298° |
| 2026-04-27 12:53 | 43.31903 | -2.95992 | 2016 ft | 164 kts | 299° |
| 2026-04-27 12:53 | 43.32455 | -2.97462 | 2436 ft | 183 kts | 298° |
| 2026-04-27 12:54 | 43.33271 | -2.98867 | 2816 ft | 202 kts | 322° |
| 2026-04-27 12:54 | 43.34491 | -2.99995 | 3240 ft | 220 kts | 326° |
| 2026-04-27 12:54 | 43.35762 | -3.01238 | 3847 ft | 227 kts | 320° |
| 2026-04-27 12:54 | 43.36950 | -3.02651 | 4708 ft | 225 kts | 315° |
| 2026-04-27 12:55 | 43.38069 | -3.04181 | 5423 ft | 228 kts | 312° |
| 2026-04-27 12:55 | 43.39159 | -3.05796 | 6115 ft | 233 kts | 310° |
| 2026-04-27 12:55 | 43.40337 | -3.07359 | 6749 ft | 241 kts | 327° |
| 2026-04-27 12:55 | 43.41976 | -3.08132 | 7098 ft | 262 kts | 357° |
| 2026-04-27 12:56 | 43.43755 | -3.07688 | 7670 ft | 268 kts | 27° |
| 2026-04-27 12:56 | 43.45196 | -3.06108 | 8417 ft | 268 kts | 56° |
| 2026-04-27 12:56 | 43.45949 | -3.03792 | 9164 ft | 266 kts | 81° |
| 2026-04-27 12:56 | 43.46262 | -3.01274 | 9947 ft | 268 kts | 81° |
| 2026-04-27 12:57 | 43.46817 | -2.98796 | 10635 ft | 274 kts | 67° |
| 2026-04-27 12:57 | 43.47800 | -2.96526 | 11311 ft | 279 kts | 54° |
| 2026-04-27 12:57 | 43.49085 | -2.94496 | 11992 ft | 283 kts | 46° |
| 2026-04-27 12:57 | 43.50385 | -2.92448 | 12655 ft | 285 kts | 62° |
| 2026-04-27 12:58 | 43.51004 | -2.89867 | 13283 ft | 286 kts | 88° |
| 2026-04-27 12:58 | 43.50745 | -2.87207 | 13881 ft | 286 kts | 113° |
| 2026-04-27 12:58 | 43.49949 | -2.84628 | 14197 ft | 302 kts | 117° |
| 2026-04-27 12:58 | 43.49017 | -2.81948 | 14553 ft | 313 kts | 118° |
| 2026-04-27 12:59 | 43.48068 | -2.79225 | 15168 ft | 317 kts | 117° |
| 2026-04-27 12:59 | 43.47130 | -2.76464 | 15779 ft | 320 kts | 117° |
| 2026-04-27 12:59 | 43.46196 | -2.73655 | 16374 ft | 324 kts | 116° |
| 2026-04-27 12:59 | 43.45261 | -2.70809 | 16956 ft | 328 kts | 116° |
| 2026-04-27 13:00 | 43.44322 | -2.67934 | 17550 ft | 331 kts | 116° |
| 2026-04-27 13:00 | 43.43375 | -2.65031 | 18147 ft | 334 kts | 116° |
| 2026-04-27 13:00 | 43.42428 | -2.62137 | 18679 ft | 338 kts | 116° |
| 2026-04-27 13:00 | 43.41446 | -2.59138 | 19206 ft | 340 kts | 117° |
| 2026-04-27 13:01 | 43.40481 | -2.56197 | 19713 ft | 343 kts | 117° |
| 2026-04-27 13:01 | 43.39496 | -2.53198 | 20241 ft | 344 kts | 117° |
| 2026-04-27 13:01 | 43.38504 | -2.50183 | 20731 ft | 347 kts | 117° |
| 2026-04-27 13:01 | 43.37501 | -2.47138 | 21222 ft | 350 kts | 117° |
| 2026-04-27 13:02 | 43.36490 | -2.44074 | 21714 ft | 353 kts | 117° |
| 2026-04-27 13:02 | 43.35471 | -2.40986 | 22198 ft | 356 kts | 117° |
| 2026-04-27 13:02 | 43.34442 | -2.37874 | 22679 ft | 359 kts | 117° |
| 2026-04-27 13:02 | 43.33405 | -2.34744 | 23149 ft | 362 kts | 117° |
| 2026-04-27 13:03 | 43.32359 | -2.31586 | 23607 ft | 364 kts | 117° |
| 2026-04-27 13:03 | 43.31142 | -2.28588 | 23995 ft | 363 kts | 129° |
| 2026-04-27 13:03 | 43.29484 | -2.25997 | 24381 ft | 361 kts | 141° |
| 2026-04-27 13:03 | 43.27495 | -2.23887 | 24715 ft | 363 kts | 147° |
| 2026-04-27 13:04 | 43.25413 | -2.21824 | 24824 ft | 375 kts | 147° |
| 2026-04-27 13:04 | 43.23266 | -2.19683 | 24916 ft | 387 kts | 147° |
| 2026-04-27 13:04 | 43.21061 | -2.17478 | 25022 ft | 398 kts | 147° |
| 2026-04-27 13:04 | 43.18792 | -2.15208 | 25125 ft | 409 kts | 146° |
| 2026-04-27 13:05 | 43.16460 | -2.12876 | 25253 ft | 418 kts | 146° |
| 2026-04-27 13:05 | 43.14099 | -2.10516 | 25613 ft | 421 kts | 146° |
| 2026-04-27 13:05 | 43.11726 | -2.08147 | 26002 ft | 423 kts | 146° |
| 2026-04-27 13:05 | 43.09342 | -2.05769 | 26365 ft | 425 kts | 146° |
| 2026-04-27 13:06 | 43.06941 | -2.03378 | 26721 ft | 428 kts | 146° |
| 2026-04-27 13:06 | 43.04523 | -2.00973 | 27076 ft | 430 kts | 147° |
| 2026-04-27 13:06 | 43.02094 | -1.98560 | 27414 ft | 433 kts | 146° |
| 2026-04-27 13:06 | 42.99654 | -1.96140 | 27727 ft | 435 kts | 146° |
| 2026-04-27 13:07 | 42.97194 | -1.93702 | 28018 ft | 438 kts | 146° |
| 2026-04-27 13:07 | 42.94724 | -1.91257 | 28345 ft | 440 kts | 146° |
| 2026-04-27 13:07 | 42.92262 | -1.88821 | 28647 ft | 442 kts | 146° |
| 2026-04-27 13:07 | 42.89767 | -1.86354 | 28949 ft | 444 kts | 146° |
| 2026-04-27 13:08 | 42.87259 | -1.83877 | 29254 ft | 446 kts | 146° |
| 2026-04-27 13:08 | 42.84737 | -1.81388 | 29520 ft | 448 kts | 146° |
| 2026-04-27 13:08 | 42.82202 | -1.78891 | 29790 ft | 450 kts | 146° |
| 2026-04-27 13:08 | 42.79661 | -1.76391 | 30049 ft | 452 kts | 146° |
| 2026-04-27 13:09 | 42.77110 | -1.73875 | 30303 ft | 454 kts | 144° |
| 2026-04-27 13:09 | 42.74758 | -1.71062 | 30543 ft | 458 kts | 135° |
| 2026-04-27 13:09 | 42.72736 | -1.67702 | 30787 ft | 462 kts | 126° |
| 2026-04-27 13:09 | 42.71126 | -1.63895 | 30986 ft | 466 kts | 117° |
| 2026-04-27 13:10 | 42.69740 | -1.59894 | 31226 ft | 467 kts | 117° |
| 2026-04-27 13:10 | 42.68350 | -1.55899 | 31535 ft | 467 kts | 117° |
| 2026-04-27 13:10 | 42.66955 | -1.51917 | 31858 ft | 466 kts | 117° |
| 2026-04-27 13:10 | 42.65557 | -1.47948 | 32189 ft | 465 kts | 117° |
| 2026-04-27 13:11 | 42.64159 | -1.43989 | 32452 ft | 465 kts | 117° |
| 2026-04-27 13:11 | 42.62758 | -1.40030 | 32734 ft | 464 kts | 117° |
| 2026-04-27 13:11 | 42.61369 | -1.36110 | 33025 ft | 464 kts | 117° |
| 2026-04-27 13:11 | 42.59973 | -1.32174 | 33308 ft | 463 kts | 117° |
| 2026-04-27 13:12 | 42.58577 | -1.28241 | 33591 ft | 462 kts | 117° |
| 2026-04-27 13:12 | 42.57179 | -1.24307 | 33851 ft | 462 kts | 117° |
| 2026-04-27 13:12 | 42.55779 | -1.20373 | 34120 ft | 461 kts | 117° |
| 2026-04-27 13:12 | 42.54383 | -1.16458 | 34337 ft | 461 kts | 117° |
| 2026-04-27 13:13 | 42.53003 | -1.12591 | 34542 ft | 461 kts | 117° |
| 2026-04-27 13:13 | 42.51603 | -1.08677 | 34755 ft | 460 kts | 117° |
| 2026-04-27 13:13 | 42.50206 | -1.04773 | 34942 ft | 461 kts | 117° |
| 2026-04-27 13:13 | 42.48803 | -1.00858 | 35118 ft | 461 kts | 117° |
| 2026-04-27 13:14 | 42.47403 | -0.96955 | 35295 ft | 461 kts | 117° |
| 2026-04-27 13:14 | 42.45998 | -0.93039 | 35468 ft | 461 kts | 117° |
| 2026-04-27 13:14 | 42.44613 | -0.89188 | 35631 ft | 461 kts | 117° |
| 2026-04-27 13:14 | 42.43206 | -0.85282 | 35768 ft | 461 kts | 117° |
| 2026-04-27 13:15 | 42.41796 | -0.81373 | 35924 ft | 461 kts | 117° |
| 2026-04-27 13:15 | 42.40385 | -0.77468 | 36097 ft | 461 kts | 117° |
| 2026-04-27 13:15 | 42.38975 | -0.73578 | 36259 ft | 461 kts | 117° |
| 2026-04-27 13:15 | 42.37563 | -0.69684 | 36409 ft | 460 kts | 117° |
| 2026-04-27 13:16 | 42.36150 | -0.65790 | 36535 ft | 461 kts | 117° |
| 2026-04-27 13:16 | 42.34734 | -0.61893 | 36668 ft | 461 kts | 117° |
| 2026-04-27 13:16 | 42.33339 | -0.58059 | 36807 ft | 461 kts | 117° |
| 2026-04-27 13:16 | 42.31903 | -0.54121 | 36926 ft | 461 kts | 117° |
| 2026-04-27 13:17 | 42.30488 | -0.50240 | 37040 ft | 461 kts | 117° |
| 2026-04-27 13:17 | 42.29086 | -0.46402 | 37105 ft | 461 kts | 117° |
| 2026-04-27 13:17 | 42.26250 | -0.38651 | 37104 ft | 460 kts | 117° |
| 2026-04-27 13:18 | 42.23407 | -0.30906 | 37102 ft | 460 kts | 117° |
| 2026-04-27 13:18 | 42.20560 | -0.23171 | 37102 ft | 460 kts | 117° |
| 2026-04-27 13:19 | 42.17711 | -0.15452 | 37122 ft | 460 kts | 117° |
| 2026-04-27 13:19 | 42.14856 | -0.07738 | 37116 ft | 460 kts | 117° |
| 2026-04-27 13:20 | 42.12015 | -0.00083 | 37114 ft | 459 kts | 117° |
| 2026-04-27 13:20 | 42.09157 | 0.07598 | 37092 ft | 459 kts | 117° |
| 2026-04-27 13:21 | 42.06287 | 0.15290 | 37091 ft | 459 kts | 117° |
| 2026-04-27 13:21 | 42.03412 | 0.22972 | 37090 ft | 459 kts | 117° |
| 2026-04-27 13:22 | 42.00552 | 0.30595 | 37086 ft | 458 kts | 117° |
| 2026-04-27 13:22 | 41.97672 | 0.38250 | 37091 ft | 458 kts | 117° |
| 2026-04-27 13:23 | 41.94798 | 0.45871 | 37096 ft | 456 kts | 117° |
| 2026-04-27 13:23 | 41.91924 | 0.53475 | 37093 ft | 456 kts | 117° |
| 2026-04-27 13:24 | 41.89043 | 0.61076 | 37096 ft | 457 kts | 117° |
| 2026-04-27 13:24 | 41.86157 | 0.68671 | 37094 ft | 457 kts | 117° |
| 2026-04-27 13:25 | 41.83268 | 0.76251 | 37090 ft | 456 kts | 117° |
| 2026-04-27 13:25 | 41.80372 | 0.83825 | 37093 ft | 456 kts | 118° |
| 2026-04-27 13:26 | 41.77491 | 0.91343 | 37090 ft | 456 kts | 118° |
| 2026-04-27 13:26 | 41.74591 | 0.98892 | 37077 ft | 455 kts | 118° |
| 2026-04-27 13:27 | 41.71683 | 1.06441 | 37074 ft | 455 kts | 118° |
| 2026-04-27 13:27 | 41.68776 | 1.13967 | 37082 ft | 455 kts | 118° |
| 2026-04-27 13:28 | 41.65882 | 1.21441 | 37084 ft | 455 kts | 118° |
| 2026-04-27 13:28 | 41.62961 | 1.28965 | 37094 ft | 455 kts | 118° |
| 2026-04-27 13:29 | 41.60041 | 1.36470 | 37095 ft | 455 kts | 118° |
| 2026-04-27 13:29 | 41.57111 | 1.43978 | 37109 ft | 456 kts | 118° |
| 2026-04-27 13:30 | 41.54177 | 1.51478 | 37114 ft | 456 kts | 118° |
| 2026-04-27 13:30 | 41.51230 | 1.58989 | 37119 ft | 457 kts | 118° |
| 2026-04-27 13:31 | 41.48266 | 1.66523 | 37118 ft | 458 kts | 118° |
| 2026-04-27 13:31 | 41.45323 | 1.73988 | 37119 ft | 456 kts | 118° |
| 2026-04-27 13:32 | 41.42361 | 1.81484 | 37123 ft | 459 kts | 118° |
| 2026-04-27 13:32 | 41.39383 | 1.89000 | 37127 ft | 456 kts | 118° |
| 2026-04-27 13:33 | 41.36914 | 1.95217 | 37128 ft | 458 kts | 118° |
| 2026-04-27 13:33 | 41.33920 | 2.02739 | 37129 ft | 458 kts | 118° |
| 2026-04-27 13:34 | 41.31160 | 2.10339 | 37130 ft | 455 kts | 110° |
| 2026-04-27 13:34 | 41.29438 | 2.18421 | 37131 ft | 457 kts | 102° |
| 2026-04-27 13:35 | 41.28099 | 2.26673 | 37129 ft | 456 kts | 102° |
| 2026-04-27 13:35 | 41.26735 | 2.34916 | 37128 ft | 456 kts | 102° |
| 2026-04-27 13:36 | 41.25364 | 2.43158 | 37127 ft | 456 kts | 102° |
| 2026-04-27 13:36 | 41.23986 | 2.51397 | 37126 ft | 456 kts | 102° |
| 2026-04-27 13:37 | 41.22605 | 2.59624 | 37126 ft | 456 kts | 102° |
| 2026-04-27 13:37 | 41.21225 | 2.67799 | 37130 ft | 456 kts | 102° |
| 2026-04-27 13:38 | 41.19828 | 2.76040 | 37122 ft | 456 kts | 102° |
| 2026-04-27 13:38 | 41.18427 | 2.84269 | 37123 ft | 457 kts | 102° |
| 2026-04-27 13:39 | 41.17028 | 2.92451 | 37125 ft | 457 kts | 102° |
| 2026-04-27 13:39 | 41.15612 | 3.00687 | 37125 ft | 457 kts | 102° |
| 2026-04-27 13:40 | 41.14193 | 3.08907 | 37127 ft | 457 kts | 102° |
| 2026-04-27 13:40 | 41.12765 | 3.17141 | 37132 ft | 457 kts | 102° |
| 2026-04-27 13:41 | 41.11334 | 3.25355 | 37137 ft | 457 kts | 102° |
| 2026-04-27 13:41 | 41.09896 | 3.33577 | 37134 ft | 457 kts | 102° |
| 2026-04-27 13:42 | 41.08452 | 3.41787 | 37131 ft | 457 kts | 103° |
| 2026-04-27 13:42 | 41.07012 | 3.49948 | 37132 ft | 457 kts | 103° |
| 2026-04-27 13:43 | 41.05558 | 3.58154 | 37135 ft | 457 kts | 103° |
| 2026-04-27 13:43 | 41.04096 | 3.66359 | 37135 ft | 457 kts | 103° |
| 2026-04-27 13:44 | 41.02629 | 3.74557 | 37134 ft | 457 kts | 103° |
| 2026-04-27 13:44 | 41.01156 | 3.82751 | 37131 ft | 458 kts | 103° |
| 2026-04-27 13:45 | 40.99673 | 3.90949 | 37131 ft | 458 kts | 103° |
| 2026-04-27 13:45 | 40.98185 | 3.99143 | 37128 ft | 458 kts | 103° |
| 2026-04-27 13:46 | 40.96693 | 4.07324 | 37132 ft | 458 kts | 103° |
| 2026-04-27 13:46 | 40.95202 | 4.15466 | 37133 ft | 458 kts | 103° |
| 2026-04-27 13:47 | 40.93695 | 4.23655 | 37128 ft | 458 kts | 103° |
| 2026-04-27 13:47 | 40.92183 | 4.31843 | 37130 ft | 458 kts | 103° |
| 2026-04-27 13:48 | 40.90662 | 4.40041 | 37131 ft | 458 kts | 103° |
| 2026-04-27 13:48 | 40.89136 | 4.48233 | 37135 ft | 459 kts | 103° |
| 2026-04-27 13:49 | 40.87610 | 4.56421 | 37139 ft | 459 kts | 103° |
| 2026-04-27 13:49 | 40.86090 | 4.64555 | 37134 ft | 459 kts | 102° |
| 2026-04-27 13:50 | 40.85117 | 4.72878 | 37131 ft | 458 kts | 95° |
| 2026-04-27 13:50 | 40.84354 | 4.81242 | 37133 ft | 459 kts | 96° |
| 2026-04-27 13:51 | 40.83575 | 4.89607 | 37136 ft | 459 kts | 96° |
| 2026-04-27 13:51 | 40.82788 | 4.97984 | 37135 ft | 460 kts | 96° |
| 2026-04-27 13:52 | 40.81995 | 5.06375 | 37142 ft | 460 kts | 96° |
| 2026-04-27 13:52 | 40.81197 | 5.14754 | 37144 ft | 460 kts | 96° |
| 2026-04-27 13:53 | 40.79990 | 5.27288 | 37143 ft | 461 kts | 96° |
| 2026-04-27 13:54 | 40.79174 | 5.35685 | 37141 ft | 461 kts | 96° |
| 2026-04-27 13:54 | 40.78352 | 5.44081 | 37138 ft | 461 kts | 96° |
| 2026-04-27 13:55 | 40.77530 | 5.52422 | 37135 ft | 461 kts | 96° |
| 2026-04-27 13:55 | 40.76695 | 5.60824 | 37130 ft | 461 kts | 96° |
| 2026-04-27 13:56 | 40.75853 | 5.69220 | 37134 ft | 461 kts | 96° |
| 2026-04-27 13:56 | 40.75006 | 5.77615 | 37136 ft | 462 kts | 96° |
| 2026-04-27 13:57 | 40.74152 | 5.86015 | 37134 ft | 462 kts | 96° |
| 2026-04-27 13:57 | 40.73292 | 5.94423 | 37132 ft | 462 kts | 96° |
| 2026-04-27 13:58 | 40.72429 | 6.02769 | 37134 ft | 462 kts | 96° |
| 2026-04-27 13:58 | 40.71554 | 6.11169 | 37135 ft | 463 kts | 96° |
| 2026-04-27 13:59 | 40.70673 | 6.19585 | 37135 ft | 463 kts | 96° |
| 2026-04-27 13:59 | 40.69786 | 6.27984 | 37132 ft | 463 kts | 96° |
| 2026-04-27 14:00 | 40.68893 | 6.36382 | 37133 ft | 463 kts | 96° |
| 2026-04-27 14:00 | 40.67993 | 6.44786 | 37140 ft | 463 kts | 96° |
| 2026-04-27 14:01 | 40.67091 | 6.53154 | 37122 ft | 464 kts | 97° |
| 2026-04-27 14:01 | 40.66176 | 6.61579 | 37131 ft | 464 kts | 97° |
| 2026-04-27 14:02 | 40.65256 | 6.69992 | 37137 ft | 464 kts | 97° |
| 2026-04-27 14:02 | 40.64328 | 6.78423 | 37130 ft | 464 kts | 97° |
| 2026-04-27 14:03 | 40.63400 | 6.86795 | 37132 ft | 465 kts | 97° |
| 2026-04-27 14:03 | 40.62455 | 6.95272 | 37127 ft | 465 kts | 97° |
| 2026-04-27 14:04 | 40.61514 | 7.03639 | 37137 ft | 465 kts | 97° |
| 2026-04-27 14:04 | 40.60560 | 7.12068 | 37134 ft | 465 kts | 97° |
| 2026-04-27 14:05 | 40.59600 | 7.20497 | 37128 ft | 465 kts | 97° |
| 2026-04-27 14:05 | 40.58635 | 7.28918 | 37138 ft | 465 kts | 97° |
| 2026-04-27 14:06 | 40.57663 | 7.37340 | 37121 ft | 465 kts | 97° |
| 2026-04-27 14:06 | 40.56766 | 7.45769 | 37134 ft | 464 kts | 92° |
| 2026-04-27 14:07 | 40.56891 | 7.54169 | 37130 ft | 462 kts | 81° |
| 2026-04-27 14:07 | 40.57640 | 7.62569 | 37126 ft | 462 kts | 82° |
| 2026-04-27 14:08 | 40.58364 | 7.70978 | 37123 ft | 462 kts | 82° |
| 2026-04-27 14:08 | 40.59080 | 7.79382 | 37122 ft | 462 kts | 82° |
| 2026-04-27 14:09 | 40.59791 | 7.87795 | 37115 ft | 463 kts | 82° |
| 2026-04-27 14:09 | 40.60496 | 7.96213 | 37113 ft | 463 kts | 82° |
| 2026-04-27 14:10 | 40.61198 | 8.04646 | 37107 ft | 463 kts | 82° |
| 2026-04-27 14:10 | 40.61896 | 8.13085 | 37103 ft | 464 kts | 82° |
| 2026-04-27 14:11 | 40.62587 | 8.21529 | 37103 ft | 464 kts | 83° |
| 2026-04-27 14:11 | 40.62970 | 8.29966 | 37115 ft | 465 kts | 87° |
| 2026-04-27 14:12 | 40.63198 | 8.38482 | 37111 ft | 465 kts | 87° |
| 2026-04-27 14:12 | 40.63425 | 8.47013 | 37107 ft | 465 kts | 87° |
| 2026-04-27 14:13 | 40.63643 | 8.55539 | 37110 ft | 465 kts | 87° |
| 2026-04-27 14:13 | 40.63854 | 8.64064 | 37106 ft | 466 kts | 87° |
| 2026-04-27 14:14 | 40.64057 | 8.72529 | 37114 ft | 466 kts | 87° |
| 2026-04-27 14:14 | 40.64256 | 8.81066 | 37103 ft | 466 kts | 87° |
| 2026-04-27 14:15 | 40.64447 | 8.89591 | 37102 ft | 465 kts | 88° |
| 2026-04-27 14:15 | 40.64632 | 8.98112 | 37092 ft | 465 kts | 88° |
| 2026-04-27 14:16 | 40.64811 | 9.06630 | 37092 ft | 465 kts | 88° |
| 2026-04-27 14:16 | 40.64983 | 9.15087 | 37096 ft | 465 kts | 88° |
| 2026-04-27 14:17 | 40.65149 | 9.23595 | 37097 ft | 465 kts | 88° |
| 2026-04-27 14:17 | 40.65310 | 9.32121 | 37092 ft | 464 kts | 88° |
| 2026-04-27 14:18 | 40.65464 | 9.40636 | 37104 ft | 464 kts | 88° |
| 2026-04-27 14:18 | 40.65611 | 9.49126 | 37103 ft | 464 kts | 88° |
| 2026-04-27 14:19 | 40.65784 | 9.57563 | 37104 ft | 464 kts | 86° |
| 2026-04-27 14:19 | 40.66234 | 9.66040 | 37106 ft | 463 kts | 85° |
| 2026-04-27 14:20 | 40.66702 | 9.74499 | 37112 ft | 463 kts | 85° |
| 2026-04-27 14:20 | 40.67061 | 9.81538 | 37112 ft | 463 kts | 85° |
| 2026-04-27 14:21 | 40.67473 | 9.90007 | 37122 ft | 463 kts | 85° |
| 2026-04-27 14:21 | 40.67877 | 9.98464 | 37121 ft | 463 kts | 85° |
| 2026-04-27 14:22 | 40.68277 | 10.06939 | 37120 ft | 463 kts | 85° |
| 2026-04-27 14:22 | 40.68666 | 10.15346 | 37123 ft | 463 kts | 85° |
| 2026-04-27 14:23 | 40.69053 | 10.23824 | 37123 ft | 463 kts | 85° |
| 2026-04-27 14:23 | 40.69434 | 10.32298 | 37127 ft | 463 kts | 86° |
| 2026-04-27 14:24 | 40.69808 | 10.40771 | 37128 ft | 463 kts | 86° |
| 2026-04-27 14:24 | 40.70177 | 10.49254 | 37135 ft | 463 kts | 86° |
| 2026-04-27 14:25 | 40.70537 | 10.57679 | 37135 ft | 463 kts | 86° |
| 2026-04-27 14:25 | 40.70892 | 10.66165 | 37134 ft | 464 kts | 86° |
| 2026-04-27 14:26 | 40.71243 | 10.74660 | 37138 ft | 464 kts | 86° |
| 2026-04-27 14:26 | 40.71588 | 10.83172 | 37139 ft | 464 kts | 86° |
| 2026-04-27 14:27 | 40.71926 | 10.91678 | 37142 ft | 464 kts | 86° |
| 2026-04-27 14:27 | 40.72256 | 11.00141 | 37140 ft | 464 kts | 86° |
| 2026-04-27 14:28 | 40.72583 | 11.08666 | 37141 ft | 464 kts | 86° |
| 2026-04-27 14:28 | 40.72900 | 11.17118 | 37141 ft | 464 kts | 86° |
| 2026-04-27 14:29 | 40.73214 | 11.25643 | 37139 ft | 464 kts | 86° |
| 2026-04-27 14:29 | 40.73521 | 11.34148 | 37138 ft | 464 kts | 86° |
| 2026-04-27 14:30 | 40.73820 | 11.42607 | 37135 ft | 464 kts | 86° |
| 2026-04-27 14:30 | 40.74114 | 11.51106 | 37135 ft | 464 kts | 86° |
| 2026-04-27 14:31 | 40.74402 | 11.59598 | 37137 ft | 464 kts | 86° |
| 2026-04-27 14:31 | 40.74684 | 11.68104 | 37136 ft | 464 kts | 86° |
| 2026-04-27 14:32 | 40.74959 | 11.76601 | 37128 ft | 464 kts | 86° |
| 2026-04-27 14:32 | 40.75228 | 11.85109 | 37131 ft | 464 kts | 86° |
| 2026-04-27 14:33 | 40.75492 | 11.93630 | 37135 ft | 464 kts | 86° |
| 2026-04-27 14:33 | 40.75748 | 12.02101 | 37132 ft | 464 kts | 87° |
| 2026-04-27 14:34 | 40.75999 | 12.10617 | 37126 ft | 465 kts | 87° |
| 2026-04-27 14:34 | 40.76244 | 12.19149 | 37130 ft | 465 kts | 87° |
| 2026-04-27 14:35 | 40.76483 | 12.27688 | 37132 ft | 465 kts | 87° |
| 2026-04-27 14:35 | 40.76716 | 12.36236 | 37128 ft | 465 kts | 87° |
| 2026-04-27 14:36 | 40.76941 | 12.44726 | 37123 ft | 466 kts | 87° |
| 2026-04-27 14:36 | 40.77161 | 12.53265 | 37129 ft | 466 kts | 87° |
| 2026-04-27 14:37 | 40.77376 | 12.61808 | 37126 ft | 466 kts | 87° |
| 2026-04-27 14:37 | 40.77486 | 12.70369 | 37128 ft | 467 kts | 91° |
| 2026-04-27 14:38 | 40.77291 | 12.78935 | 37119 ft | 467 kts | 90° |
| 2026-04-27 14:38 | 40.77135 | 12.87505 | 37123 ft | 467 kts | 90° |
| 2026-04-27 14:39 | 40.76961 | 12.96074 | 37118 ft | 467 kts | 91° |
| 2026-04-27 14:39 | 40.76775 | 13.04597 | 37119 ft | 467 kts | 91° |
| 2026-04-27 14:40 | 40.76580 | 13.13177 | 37117 ft | 467 kts | 91° |
| 2026-04-27 14:40 | 40.76380 | 13.21757 | 37122 ft | 468 kts | 91° |
| 2026-04-27 14:41 | 40.76172 | 13.30341 | 37117 ft | 468 kts | 91° |
| 2026-04-27 14:41 | 40.75960 | 13.38876 | 37112 ft | 468 kts | 91° |
| 2026-04-27 14:42 | 40.75740 | 13.47471 | 37117 ft | 468 kts | 91° |
| 2026-04-27 14:42 | 40.75513 | 13.56061 | 37107 ft | 468 kts | 91° |
| 2026-04-27 14:43 | 40.75280 | 13.64660 | 37117 ft | 469 kts | 91° |
| 2026-04-27 14:43 | 40.75041 | 13.73248 | 37112 ft | 469 kts | 91° |
| 2026-04-27 14:44 | 40.74797 | 13.81796 | 37113 ft | 469 kts | 91° |
| 2026-04-27 14:44 | 40.74544 | 13.90398 | 37117 ft | 469 kts | 91° |
| 2026-04-27 14:45 | 40.74286 | 13.98997 | 37123 ft | 469 kts | 91° |
| 2026-04-27 14:45 | 40.74020 | 14.07613 | 37123 ft | 470 kts | 91° |
| 2026-04-27 14:46 | 40.73748 | 14.16214 | 37121 ft | 469 kts | 91° |
| 2026-04-27 14:46 | 40.73470 | 14.24834 | 37121 ft | 469 kts | 91° |
| 2026-04-27 14:47 | 40.73187 | 14.33385 | 37122 ft | 469 kts | 91° |
| 2026-04-27 14:47 | 40.72897 | 14.41981 | 37117 ft | 469 kts | 91° |
| 2026-04-27 14:48 | 40.72599 | 14.50584 | 37119 ft | 469 kts | 92° |
| 2026-04-27 14:48 | 40.72143 | 14.63437 | 37127 ft | 470 kts | 92° |
| 2026-04-27 14:49 | 40.71828 | 14.72091 | 37131 ft | 470 kts | 92° |
| 2026-04-27 14:49 | 40.71510 | 14.80646 | 37131 ft | 470 kts | 92° |
| 2026-04-27 14:50 | 40.71185 | 14.89238 | 37130 ft | 469 kts | 92° |
| 2026-04-27 14:50 | 40.70852 | 14.97842 | 37131 ft | 469 kts | 92° |
| 2026-04-27 14:51 | 40.70514 | 15.06431 | 37113 ft | 469 kts | 92° |
| 2026-04-27 14:51 | 40.70227 | 15.13572 | 37113 ft | 469 kts | 92° |
| 2026-04-27 14:52 | 40.69819 | 15.23591 | 37097 ft | 468 kts | 92° |
| 2026-04-27 14:52 | 40.69462 | 15.32164 | 37096 ft | 469 kts | 92° |
| 2026-04-27 14:53 | 40.69103 | 15.40702 | 37093 ft | 469 kts | 92° |
| 2026-04-27 14:53 | 40.68897 | 15.49291 | 37095 ft | 469 kts | 89° |
| 2026-04-27 14:54 | 40.68851 | 15.57896 | 37096 ft | 470 kts | 89° |
| 2026-04-27 14:54 | 40.68773 | 15.66510 | 37102 ft | 470 kts | 90° |
| 2026-04-27 14:55 | 40.68667 | 15.75130 | 37106 ft | 471 kts | 90° |
| 2026-04-27 14:55 | 40.68550 | 15.83713 | 37091 ft | 472 kts | 90° |
| 2026-04-27 14:56 | 40.68427 | 15.92346 | 37090 ft | 471 kts | 90° |
| 2026-04-27 14:56 | 40.68298 | 16.00990 | 37085 ft | 471 kts | 90° |
| 2026-04-27 14:57 | 40.68162 | 16.09615 | 37086 ft | 471 kts | 90° |
| 2026-04-27 14:57 | 40.68020 | 16.18187 | 37087 ft | 471 kts | 90° |
| 2026-04-27 14:58 | 40.67870 | 16.26878 | 37087 ft | 471 kts | 90° |
| 2026-04-27 14:58 | 40.67715 | 16.35504 | 37097 ft | 471 kts | 90° |
| 2026-04-27 14:59 | 40.67555 | 16.44080 | 37108 ft | 471 kts | 90° |
| 2026-04-27 14:59 | 40.67386 | 16.52712 | 37129 ft | 471 kts | 90° |
| 2026-04-27 15:00 | 40.67212 | 16.61350 | 37136 ft | 472 kts | 90° |
| 2026-04-27 15:00 | 40.67031 | 16.69991 | 37140 ft | 472 kts | 90° |
| 2026-04-27 15:01 | 40.66843 | 16.78636 | 37128 ft | 472 kts | 91° |
| 2026-04-27 15:01 | 40.66649 | 16.87285 | 37114 ft | 472 kts | 91° |
| 2026-04-27 15:02 | 40.66449 | 16.95882 | 37102 ft | 472 kts | 91° |
| 2026-04-27 15:02 | 40.66242 | 17.04523 | 37101 ft | 472 kts | 91° |
| 2026-04-27 15:03 | 40.66029 | 17.13169 | 37099 ft | 472 kts | 91° |
| 2026-04-27 15:03 | 40.65809 | 17.21818 | 37083 ft | 472 kts | 91° |
| 2026-04-27 15:04 | 40.65582 | 17.30483 | 37082 ft | 472 kts | 91° |
| 2026-04-27 15:04 | 40.65350 | 17.39083 | 37078 ft | 472 kts | 91° |
| 2026-04-27 15:05 | 40.65151 | 17.46288 | 37071 ft | 473 kts | 91° |
| 2026-04-27 15:05 | 40.64906 | 17.54943 | 37073 ft | 473 kts | 91° |
| 2026-04-27 15:06 | 40.64613 | 17.65009 | 37076 ft | 473 kts | 91° |
| 2026-04-27 15:06 | 40.64398 | 17.72218 | 37077 ft | 473 kts | 91° |
| 2026-04-27 15:07 | 40.64133 | 17.80889 | 37078 ft | 473 kts | 91° |
| 2026-04-27 15:07 | 40.63862 | 17.89555 | 37074 ft | 473 kts | 91° |
| 2026-04-27 15:08 | 40.63584 | 17.98217 | 37074 ft | 474 kts | 91° |
| 2026-04-27 15:08 | 40.63300 | 18.06893 | 37076 ft | 474 kts | 91° |
| 2026-04-27 15:09 | 40.63011 | 18.15506 | 37077 ft | 474 kts | 91° |
| 2026-04-27 15:09 | 40.62713 | 18.24173 | 37077 ft | 474 kts | 91° |
| 2026-04-27 15:10 | 40.62409 | 18.32854 | 37074 ft | 474 kts | 91° |
| 2026-04-27 15:10 | 40.62099 | 18.41529 | 37079 ft | 474 kts | 92° |
| 2026-04-27 15:11 | 40.61781 | 18.50217 | 37080 ft | 474 kts | 92° |
| 2026-04-27 15:11 | 40.61460 | 18.58838 | 37080 ft | 474 kts | 92° |
| 2026-04-27 15:12 | 40.61129 | 18.67523 | 37076 ft | 474 kts | 92° |
| 2026-04-27 15:12 | 40.60793 | 18.76203 | 37075 ft | 474 kts | 92° |
| 2026-04-27 15:13 | 40.60450 | 18.84870 | 37076 ft | 474 kts | 92° |
| 2026-04-27 15:13 | 40.60103 | 18.93536 | 37076 ft | 474 kts | 92° |
| 2026-04-27 15:14 | 40.59704 | 19.02142 | 37079 ft | 474 kts | 94° |
| 2026-04-27 15:14 | 40.59242 | 19.10808 | 37076 ft | 474 kts | 92° |
| 2026-04-27 15:15 | 40.58814 | 19.19474 | 37071 ft | 474 kts | 93° |
| 2026-04-27 15:15 | 40.58360 | 19.28136 | 37069 ft | 475 kts | 93° |
| 2026-04-27 15:16 | 40.57895 | 19.36744 | 37070 ft | 475 kts | 93° |
| 2026-04-27 15:16 | 40.57419 | 19.45409 | 37071 ft | 475 kts | 93° |
| 2026-04-27 15:17 | 40.56937 | 19.54091 | 37068 ft | 475 kts | 93° |
| 2026-04-27 15:17 | 40.56444 | 19.62769 | 37070 ft | 476 kts | 94° |
| 2026-04-27 15:18 | 40.55945 | 19.71441 | 37069 ft | 476 kts | 94° |
| 2026-04-27 15:18 | 40.55437 | 19.80137 | 37075 ft | 476 kts | 94° |
| 2026-04-27 15:19 | 40.54927 | 19.88765 | 37073 ft | 477 kts | 94° |
| 2026-04-27 15:19 | 40.54403 | 19.97446 | 37069 ft | 475 kts | 94° |
| 2026-04-27 15:20 | 40.53875 | 20.06129 | 37064 ft | 476 kts | 94° |
| 2026-04-27 15:20 | 40.53353 | 20.14809 | 37084 ft | 476 kts | 94° |
| 2026-04-27 15:21 | 40.52822 | 20.23505 | 37088 ft | 477 kts | 94° |
| 2026-04-27 15:21 | 40.52283 | 20.32198 | 37086 ft | 477 kts | 94° |
| 2026-04-27 15:22 | 40.51733 | 20.40820 | 37096 ft | 477 kts | 94° |
| 2026-04-27 15:22 | 40.51168 | 20.49557 | 37102 ft | 477 kts | 94° |
| 2026-04-27 15:23 | 40.50602 | 20.58210 | 37102 ft | 477 kts | 94° |
| 2026-04-27 15:23 | 40.50029 | 20.66885 | 37101 ft | 476 kts | 94° |
| 2026-04-27 15:24 | 40.49450 | 20.75546 | 37091 ft | 475 kts | 94° |
| 2026-04-27 15:24 | 40.48867 | 20.84171 | 37096 ft | 475 kts | 94° |
| 2026-04-27 15:25 | 40.48277 | 20.92828 | 37091 ft | 475 kts | 93° |
| 2026-04-27 15:25 | 40.48378 | 21.01468 | 37087 ft | 473 kts | 84° |
| 2026-04-27 15:26 | 40.48824 | 21.10090 | 37085 ft | 473 kts | 85° |
| 2026-04-27 15:26 | 40.49253 | 21.18665 | 37071 ft | 473 kts | 85° |
| 2026-04-27 15:27 | 40.49677 | 21.27294 | 37079 ft | 473 kts | 85° |
| 2026-04-27 15:27 | 40.50095 | 21.35926 | 37077 ft | 473 kts | 85° |
| 2026-04-27 15:28 | 40.50507 | 21.44560 | 37075 ft | 474 kts | 85° |
| 2026-04-27 15:28 | 40.50913 | 21.53219 | 37085 ft | 474 kts | 85° |
| 2026-04-27 15:29 | 40.51310 | 21.61825 | 37101 ft | 475 kts | 85° |
| 2026-04-27 15:29 | 40.51703 | 21.70496 | 37111 ft | 475 kts | 85° |
| 2026-04-27 15:30 | 40.52091 | 21.79174 | 37127 ft | 476 kts | 85° |
| 2026-04-27 15:30 | 40.52471 | 21.87833 | 37125 ft | 477 kts | 85° |
| 2026-04-27 15:31 | 40.52846 | 21.96541 | 37132 ft | 477 kts | 85° |
| 2026-04-27 15:31 | 40.53214 | 22.05246 | 37117 ft | 475 kts | 85° |
| 2026-04-27 15:32 | 40.53574 | 22.13924 | 37122 ft | 476 kts | 85° |
| 2026-04-27 15:32 | 40.53931 | 22.22621 | 37126 ft | 476 kts | 85° |
| 2026-04-27 15:33 | 40.54279 | 22.31275 | 37123 ft | 476 kts | 85° |
| 2026-04-27 15:33 | 40.54621 | 22.39968 | 37129 ft | 476 kts | 85° |
| 2026-04-27 15:34 | 40.54957 | 22.48673 | 37142 ft | 476 kts | 85° |
| 2026-04-27 15:34 | 40.55285 | 22.57334 | 37143 ft | 476 kts | 85° |
| 2026-04-27 15:35 | 40.55609 | 22.66052 | 37153 ft | 476 kts | 85° |
| 2026-04-27 15:35 | 40.55925 | 22.74762 | 37155 ft | 476 kts | 85° |
| 2026-04-27 15:36 | 40.56236 | 22.83479 | 37157 ft | 476 kts | 86° |
| 2026-04-27 15:36 | 40.56537 | 22.92128 | 37158 ft | 476 kts | 86° |
| 2026-04-27 15:37 | 40.56834 | 23.00843 | 37159 ft | 476 kts | 86° |
| 2026-04-27 15:37 | 40.57124 | 23.09553 | 37160 ft | 477 kts | 86° |
| 2026-04-27 15:38 | 40.57409 | 23.18272 | 37154 ft | 477 kts | 86° |
| 2026-04-27 15:38 | 40.57685 | 23.26946 | 37156 ft | 477 kts | 86° |
| 2026-04-27 15:39 | 40.57956 | 23.35670 | 37152 ft | 477 kts | 86° |
| 2026-04-27 15:39 | 40.58220 | 23.44390 | 37154 ft | 477 kts | 86° |
| 2026-04-27 15:40 | 40.58478 | 23.53112 | 37157 ft | 477 kts | 86° |
| 2026-04-27 15:40 | 40.58730 | 23.61843 | 37159 ft | 477 kts | 86° |
| 2026-04-27 15:41 | 40.58973 | 23.70508 | 37161 ft | 477 kts | 86° |
| 2026-04-27 15:41 | 40.59211 | 23.79227 | 37155 ft | 476 kts | 87° |
| 2026-04-27 15:42 | 40.59443 | 23.87950 | 37155 ft | 476 kts | 87° |
| 2026-04-27 15:42 | 40.59921 | 23.96634 | 37157 ft | 474 kts | 78° |
| 2026-04-27 15:43 | 40.61591 | 24.04932 | 37156 ft | 472 kts | 70° |
| 2026-04-27 15:43 | 40.63538 | 24.13188 | 37152 ft | 472 kts | 71° |
| 2026-04-27 15:44 | 40.65473 | 24.21457 | 37157 ft | 472 kts | 71° |
| 2026-04-27 15:44 | 40.67402 | 24.29732 | 37155 ft | 472 kts | 71° |
| 2026-04-27 15:45 | 40.69327 | 24.38019 | 37157 ft | 473 kts | 71° |
| 2026-04-27 15:45 | 40.71235 | 24.46255 | 37161 ft | 473 kts | 71° |
| 2026-04-27 15:46 | 40.73153 | 24.54572 | 37163 ft | 474 kts | 71° |
| 2026-04-27 15:46 | 40.75067 | 24.62899 | 37169 ft | 474 kts | 71° |
| 2026-04-27 15:47 | 40.76980 | 24.71250 | 37177 ft | 475 kts | 71° |
| 2026-04-27 15:47 | 40.78879 | 24.79564 | 37174 ft | 475 kts | 71° |
| 2026-04-27 15:48 | 40.80782 | 24.87925 | 37167 ft | 475 kts | 71° |
| 2026-04-27 15:49 | 40.83625 | 25.00473 | 37163 ft | 474 kts | 71° |
| 2026-04-27 15:49 | 40.85505 | 25.08814 | 37166 ft | 474 kts | 71° |
| 2026-04-27 15:50 | 40.87382 | 25.17169 | 37162 ft | 474 kts | 71° |
| 2026-04-27 15:50 | 40.89240 | 25.25472 | 37162 ft | 474 kts | 72° |
| 2026-04-27 15:51 | 40.91105 | 25.33839 | 37160 ft | 474 kts | 72° |
| 2026-04-27 15:51 | 40.92967 | 25.42205 | 37174 ft | 474 kts | 72° |
| 2026-04-27 15:52 | 40.94826 | 25.50585 | 37167 ft | 475 kts | 72° |
| 2026-04-27 15:52 | 40.96676 | 25.58966 | 37169 ft | 475 kts | 72° |
| 2026-04-27 15:53 | 40.98524 | 25.67362 | 37170 ft | 475 kts | 72° |
| 2026-04-27 15:53 | 41.00056 | 25.74352 | 37169 ft | 475 kts | 72° |